sensor_id;sensor_type;location;lat;lon;timestamp;P1;durP1;ratioP1;P2;durP2;ratioP2
55692;SDS011;41590;53.366;5.212;2023-08-24T00:02:28;5.78;;;3.53;;
55692;SDS011;41590;53.366;5.212;2023-08-24T00:04:54;9.18;;;3.35;;
55692;SDS011;41590;53.366;5.212;2023-08-24T00:07:27;6.28;;;3.30;;
55692;SDS011;41590;53.366;5.212;2023-08-24T00:12:32;6.82;;;3.00;;
55692;SDS011;41590;53.366;5.212;2023-08-24T00:15:02;7.03;;;3.33;;
55692;SDS011;41590;53.366;5.212;2023-08-24T00:17:41;8.30;;;3.28;;
55692;SDS011;41590;53.366;5.212;2023-08-24T00:23:16;8.88;;;3.63;;
55692;SDS011;41590;53.366;5.212;2023-08-24T00:25:56;6.20;;;3.35;;
55692;SDS011;41590;53.366;5.212;2023-08-24T00:28:22;6.47;;;2.97;;
55692;SDS011;41590;53.366;5.212;2023-08-24T00:30:48;8.48;;;3.58;;
55692;SDS011;41590;53.366;5.212;2023-08-24T00:33:15;3.53;;;2.63;;
55692;SDS011;41590;53.366;5.212;2023-08-24T00:38:17;9.43;;;3.60;;
55692;SDS011;41590;53.366;5.212;2023-08-24T00:40:43;6.32;;;3.83;;
55692;SDS011;41590;53.366;5.212;2023-08-24T00:43:09;6.38;;;3.13;;
55692;SDS011;41590;53.366;5.212;2023-08-24T00:45:40;6.57;;;3.05;;
55692;SDS011;41590;53.366;5.212;2023-08-24T00:58:26;6.22;;;3.80;;
55692;SDS011;41590;53.366;5.212;2023-08-24T01:00:53;5.05;;;3.30;;
55692;SDS011;41590;53.366;5.212;2023-08-24T01:03:22;6.88;;;2.95;;
55692;SDS011;41590;53.366;5.212;2023-08-24T01:16:48;7.27;;;3.13;;
55692;SDS011;41590;53.366;5.212;2023-08-24T01:19:21;5.22;;;3.00;;
55692;SDS011;41590;53.366;5.212;2023-08-24T01:21:49;6.63;;;3.67;;
55692;SDS011;41590;53.366;5.212;2023-08-24T01:26:51;5.93;;;3.35;;
55692;SDS011;41590;53.366;5.212;2023-08-24T01:29:19;7.93;;;3.55;;
55692;SDS011;41590;53.366;5.212;2023-08-24T01:31:48;6.38;;;3.13;;
55692;SDS011;41590;53.366;5.212;2023-08-24T01:34:22;6.57;;;3.50;;
55692;SDS011;41590;53.366;5.212;2023-08-24T01:36:48;6.65;;;4.00;;
55692;SDS011;41590;53.366;5.212;2023-08-24T01:39:28;8.45;;;3.58;;
55692;SDS011;41590;53.366;5.212;2023-08-24T01:44:30;6.45;;;3.70;;
55692;SDS011;41590;53.366;5.212;2023-08-24T01:46:58;11.15;;;3.50;;
55692;SDS011;41590;53.366;5.212;2023-08-24T01:49:26;9.52;;;4.05;;
55692;SDS011;41590;53.366;5.212;2023-08-24T01:51:54;9.13;;;3.67;;
55692;SDS011;41590;53.366;5.212;2023-08-24T01:54:20;12.65;;;4.60;;
55692;SDS011;41590;53.366;5.212;2023-08-24T01:56:46;8.20;;;3.85;;
55692;SDS011;41590;53.366;5.212;2023-08-24T01:59:16;8.68;;;3.70;;
55692;SDS011;41590;53.366;5.212;2023-08-24T02:01:42;8.20;;;3.47;;
55692;SDS011;41590;53.366;5.212;2023-08-24T02:04:10;8.07;;;3.58;;
55692;SDS011;41590;53.366;5.212;2023-08-24T02:09:24;9.85;;;3.78;;
55692;SDS011;41590;53.366;5.212;2023-08-24T02:11:53;13.38;;;3.33;;
55692;SDS011;41590;53.366;5.212;2023-08-24T02:14:22;8.23;;;2.92;;
55692;SDS011;41590;53.366;5.212;2023-08-24T02:16:48;10.57;;;3.42;;
55692;SDS011;41590;53.366;5.212;2023-08-24T02:21:46;8.23;;;2.72;;
55692;SDS011;41590;53.366;5.212;2023-08-24T02:24:12;10.82;;;2.97;;
55692;SDS011;41590;53.366;5.212;2023-08-24T02:26:39;6.97;;;2.67;;
55692;SDS011;41590;53.366;5.212;2023-08-24T02:29:05;14.52;;;3.28;;
55692;SDS011;41590;53.366;5.212;2023-08-24T02:34:24;7.13;;;3.70;;
55692;SDS011;41590;53.366;5.212;2023-08-24T02:37:08;8.80;;;2.95;;
55692;SDS011;41590;53.366;5.212;2023-08-24T02:39:34;6.80;;;2.65;;
55692;SDS011;41590;53.366;5.212;2023-08-24T02:42:00;12.18;;;2.75;;
55692;SDS011;41590;53.366;5.212;2023-08-24T02:44:28;8.30;;;2.20;;
55692;SDS011;41590;53.366;5.212;2023-08-24T02:47:00;4.45;;;2.30;;
55692;SDS011;41590;53.366;5.212;2023-08-24T02:49:33;10.67;;;3.17;;
55692;SDS011;41590;53.366;5.212;2023-08-24T02:51:59;10.13;;;2.60;;
55692;SDS011;41590;53.366;5.212;2023-08-24T02:54:25;7.50;;;2.30;;
55692;SDS011;41590;53.366;5.212;2023-08-24T02:56:54;7.32;;;2.30;;
55692;SDS011;41590;53.366;5.212;2023-08-24T03:01:53;13.85;;;2.97;;
55692;SDS011;41590;53.366;5.212;2023-08-24T03:04:19;8.13;;;2.53;;
55692;SDS011;41590;53.366;5.212;2023-08-24T03:06:46;9.88;;;2.28;;
55692;SDS011;41590;53.366;5.212;2023-08-24T03:09:12;4.97;;;2.65;;
55692;SDS011;41590;53.366;5.212;2023-08-24T03:11:44;7.93;;;3.45;;
55692;SDS011;41590;53.366;5.212;2023-08-24T03:14:10;10.15;;;2.92;;
55692;SDS011;41590;53.366;5.212;2023-08-24T03:16:39;10.70;;;2.92;;
55692;SDS011;41590;53.366;5.212;2023-08-24T03:19:05;9.00;;;2.30;;
55692;SDS011;41590;53.366;5.212;2023-08-24T03:21:33;5.68;;;2.10;;
55692;SDS011;41590;53.366;5.212;2023-08-24T03:24:04;4.50;;;2.17;;
55692;SDS011;41590;53.366;5.212;2023-08-24T03:26:37;5.55;;;1.90;;
55692;SDS011;41590;53.366;5.212;2023-08-24T03:29:06;6.03;;;1.70;;
55692;SDS011;41590;53.366;5.212;2023-08-24T03:31:32;5.15;;;1.65;;
55692;SDS011;41590;53.366;5.212;2023-08-24T03:34:00;4.85;;;1.80;;
55692;SDS011;41590;53.366;5.212;2023-08-24T03:36:28;3.97;;;1.30;;
55692;SDS011;41590;53.366;5.212;2023-08-24T03:38:57;6.68;;;1.63;;
55692;SDS011;41590;53.366;5.212;2023-08-24T03:41:23;3.38;;;1.27;;
55692;SDS011;41590;53.366;5.212;2023-08-24T03:44:02;4.70;;;1.48;;
55692;SDS011;41590;53.366;5.212;2023-08-24T03:48:59;6.13;;;1.80;;
55692;SDS011;41590;53.366;5.212;2023-08-24T03:51:31;4.82;;;1.40;;
55692;SDS011;41590;53.366;5.212;2023-08-24T03:53:57;6.03;;;1.50;;
55692;SDS011;41590;53.366;5.212;2023-08-24T03:56:25;6.47;;;2.05;;
55692;SDS011;41590;53.366;5.212;2023-08-24T03:58:51;6.20;;;2.42;;
55692;SDS011;41590;53.366;5.212;2023-08-24T04:04:25;5.43;;;2.60;;
55692;SDS011;41590;53.366;5.212;2023-08-24T04:06:54;8.57;;;2.13;;
55692;SDS011;41590;53.366;5.212;2023-08-24T04:09:21;7.43;;;2.60;;
55692;SDS011;41590;53.366;5.212;2023-08-24T04:12:03;9.48;;;2.83;;
55692;SDS011;41590;53.366;5.212;2023-08-24T04:17:25;9.90;;;3.30;;
55692;SDS011;41590;53.366;5.212;2023-08-24T04:20:10;7.22;;;3.70;;
55692;SDS011;41590;53.366;5.212;2023-08-24T04:22:44;11.18;;;3.97;;
55692;SDS011;41590;53.366;5.212;2023-08-24T04:28:11;10.07;;;4.93;;
55692;SDS011;41590;53.366;5.212;2023-08-24T04:30:38;10.38;;;5.15;;
55692;SDS011;41590;53.366;5.212;2023-08-24T04:33:04;12.68;;;6.32;;
55692;SDS011;41590;53.366;5.212;2023-08-24T04:35:34;16.33;;;6.50;;
55692;SDS011;41590;53.366;5.212;2023-08-24T04:38:03;11.38;;;6.85;;
55692;SDS011;41590;53.366;5.212;2023-08-24T04:40:44;11.20;;;6.68;;
55692;SDS011;41590;53.366;5.212;2023-08-24T04:43:10;10.38;;;7.00;;
55692;SDS011;41590;53.366;5.212;2023-08-24T04:45:40;14.10;;;7.82;;
55692;SDS011;41590;53.366;5.212;2023-08-24T04:50:39;14.38;;;8.23;;
55692;SDS011;41590;53.366;5.212;2023-08-24T04:55:37;11.48;;;5.55;;
55692;SDS011;41590;53.366;5.212;2023-08-24T04:58:07;15.07;;;6.82;;
55692;SDS011;41590;53.366;5.212;2023-08-24T05:00:36;11.05;;;7.15;;
55692;SDS011;41590;53.366;5.212;2023-08-24T05:03:04;12.70;;;6.68;;
55692;SDS011;41590;53.366;5.212;2023-08-24T05:05:31;10.40;;;6.45;;
55692;SDS011;41590;53.366;5.212;2023-08-24T05:07:57;11.05;;;5.78;;
55692;SDS011;41590;53.366;5.212;2023-08-24T05:10:24;12.07;;;5.57;;
55692;SDS011;41590;53.366;5.212;2023-08-24T05:12:50;15.40;;;5.88;;
55692;SDS011;41590;53.366;5.212;2023-08-24T05:15:17;9.80;;;5.20;;
55692;SDS011;41590;53.366;5.212;2023-08-24T05:17:43;9.68;;;4.35;;
55692;SDS011;41590;53.366;5.212;2023-08-24T05:20:10;7.97;;;4.05;;
55692;SDS011;41590;53.366;5.212;2023-08-24T05:22:42;12.77;;;4.35;;
55692;SDS011;41590;53.366;5.212;2023-08-24T05:25:09;13.10;;;4.07;;
55692;SDS011;41590;53.366;5.212;2023-08-24T05:27:51;9.98;;;4.53;;
55692;SDS011;41590;53.366;5.212;2023-08-24T05:30:19;6.90;;;4.38;;
55692;SDS011;41590;53.366;5.212;2023-08-24T05:32:46;7.97;;;3.85;;
55692;SDS011;41590;53.366;5.212;2023-08-24T05:35:12;9.18;;;3.90;;
55692;SDS011;41590;53.366;5.212;2023-08-24T05:40:13;9.93;;;3.78;;
55692;SDS011;41590;53.366;5.212;2023-08-24T05:42:39;9.18;;;3.97;;
55692;SDS011;41590;53.366;5.212;2023-08-24T05:45:06;11.27;;;4.10;;
55692;SDS011;41590;53.366;5.212;2023-08-24T05:47:33;9.35;;;4.05;;
55692;SDS011;41590;53.366;5.212;2023-08-24T05:49:59;10.77;;;4.13;;
55692;SDS011;41590;53.366;5.212;2023-08-24T05:52:41;11.23;;;4.68;;
55692;SDS011;41590;53.366;5.212;2023-08-24T05:55:08;7.72;;;4.50;;
55692;SDS011;41590;53.366;5.212;2023-08-24T05:57:35;7.88;;;4.50;;
55692;SDS011;41590;53.366;5.212;2023-08-24T06:02:37;9.57;;;5.03;;
55692;SDS011;41590;53.366;5.212;2023-08-24T06:05:03;10.82;;;5.25;;
55692;SDS011;41590;53.366;5.212;2023-08-24T06:12:59;10.82;;;5.22;;
55692;SDS011;41590;53.366;5.212;2023-08-24T06:15:34;11.23;;;5.00;;
55692;SDS011;41590;53.366;5.212;2023-08-24T06:18:16;9.50;;;5.53;;
55692;SDS011;41590;53.366;5.212;2023-08-24T06:20:42;7.88;;;5.07;;
55692;SDS011;41590;53.366;5.212;2023-08-24T06:23:09;9.32;;;4.70;;
55692;SDS011;41590;53.366;5.212;2023-08-24T06:25:37;11.07;;;5.80;;
55692;SDS011;41590;53.366;5.212;2023-08-24T06:28:04;8.93;;;5.68;;
55692;SDS011;41590;53.366;5.212;2023-08-24T06:30:30;11.00;;;5.80;;
55692;SDS011;41590;53.366;5.212;2023-08-24T06:33:02;8.40;;;6.00;;
55692;SDS011;41590;53.366;5.212;2023-08-24T06:35:29;11.18;;;6.70;;
55692;SDS011;41590;53.366;5.212;2023-08-24T06:37:55;11.95;;;7.00;;
55692;SDS011;41590;53.366;5.212;2023-08-24T06:40:21;9.77;;;7.53;;
55692;SDS011;41590;53.366;5.212;2023-08-24T06:42:47;13.60;;;6.70;;
55692;SDS011;41590;53.366;5.212;2023-08-24T06:47:43;10.43;;;7.38;;
55692;SDS011;41590;53.366;5.212;2023-08-24T06:50:10;16.90;;;8.02;;
55692;SDS011;41590;53.366;5.212;2023-08-24T06:52:36;12.35;;;7.05;;
55692;SDS011;41590;53.366;5.212;2023-08-24T06:55:04;10.98;;;6.55;;
55692;SDS011;41590;53.366;5.212;2023-08-24T06:57:30;14.80;;;7.13;;
55692;SDS011;41590;53.366;5.212;2023-08-24T06:59:57;15.30;;;7.75;;
55692;SDS011;41590;53.366;5.212;2023-08-24T07:02:23;10.15;;;6.30;;
55692;SDS011;41590;53.366;5.212;2023-08-24T07:04:49;11.25;;;6.18;;
55692;SDS011;41590;53.366;5.212;2023-08-24T07:07:15;13.02;;;7.28;;
55692;SDS011;41590;53.366;5.212;2023-08-24T07:09:41;12.70;;;6.70;;
55692;SDS011;41590;53.366;5.212;2023-08-24T07:12:08;11.02;;;6.68;;
55692;SDS011;41590;53.366;5.212;2023-08-24T07:14:38;12.65;;;6.38;;
55692;SDS011;41590;53.366;5.212;2023-08-24T07:17:05;12.52;;;6.82;;
55692;SDS011;41590;53.366;5.212;2023-08-24T07:19:31;12.23;;;6.35;;
55692;SDS011;41590;53.366;5.212;2023-08-24T07:21:58;9.45;;;6.25;;
55692;SDS011;41590;53.366;5.212;2023-08-24T07:24:25;12.30;;;6.68;;
55692;SDS011;41590;53.366;5.212;2023-08-24T07:26:52;10.85;;;6.07;;
55692;SDS011;41590;53.366;5.212;2023-08-24T07:29:19;11.38;;;6.30;;
55692;SDS011;41590;53.366;5.212;2023-08-24T07:31:50;9.02;;;6.38;;
55692;SDS011;41590;53.366;5.212;2023-08-24T07:34:17;10.02;;;6.43;;
55692;SDS011;41590;53.366;5.212;2023-08-24T07:39:15;12.02;;;5.80;;
55692;SDS011;41590;53.366;5.212;2023-08-24T07:41:41;13.77;;;6.35;;
55692;SDS011;41590;53.366;5.212;2023-08-24T07:44:09;11.35;;;5.25;;
55692;SDS011;41590;53.366;5.212;2023-08-24T07:46:38;6.95;;;4.90;;
55692;SDS011;41590;53.366;5.212;2023-08-24T07:49:09;9.48;;;5.57;;
55692;SDS011;41590;53.366;5.212;2023-08-24T07:51:38;6.03;;;4.50;;
55692;SDS011;41590;53.366;5.212;2023-08-24T07:54:04;8.20;;;4.30;;
55692;SDS011;41590;53.366;5.212;2023-08-24T07:56:35;6.57;;;4.35;;
55692;SDS011;41590;53.366;5.212;2023-08-24T08:01:33;5.50;;;4.05;;
55692;SDS011;41590;53.366;5.212;2023-08-24T08:04:08;8.15;;;4.80;;
55692;SDS011;41590;53.366;5.212;2023-08-24T08:06:35;5.63;;;4.15;;
55692;SDS011;41590;53.366;5.212;2023-08-24T08:09:05;9.60;;;4.50;;
55692;SDS011;41590;53.366;5.212;2023-08-24T08:11:34;8.45;;;5.18;;
55692;SDS011;41590;53.366;5.212;2023-08-24T08:16:53;7.03;;;4.05;;
55692;SDS011;41590;53.366;5.212;2023-08-24T08:19:28;8.38;;;3.90;;
55692;SDS011;41590;53.366;5.212;2023-08-24T08:21:57;6.57;;;4.10;;
55692;SDS011;41590;53.366;5.212;2023-08-24T08:24:23;6.05;;;3.80;;
55692;SDS011;41590;53.366;5.212;2023-08-24T08:26:49;7.93;;;4.15;;
55692;SDS011;41590;53.366;5.212;2023-08-24T08:29:15;7.88;;;3.65;;
55692;SDS011;41590;53.366;5.212;2023-08-24T08:31:45;6.85;;;4.38;;
55692;SDS011;41590;53.366;5.212;2023-08-24T08:34:11;7.38;;;4.20;;
55692;SDS011;41590;53.366;5.212;2023-08-24T08:36:40;8.75;;;3.85;;
55692;SDS011;41590;53.366;5.212;2023-08-24T08:42:29;7.53;;;3.80;;
55692;SDS011;41590;53.366;5.212;2023-08-24T08:51:12;5.07;;;3.72;;
55692;SDS011;41590;53.366;5.212;2023-08-24T08:56:11;8.60;;;4.15;;
55692;SDS011;41590;53.366;5.212;2023-08-24T08:58:38;5.40;;;3.85;;
55692;SDS011;41590;53.366;5.212;2023-08-24T09:01:09;8.15;;;3.75;;
55692;SDS011;41590;53.366;5.212;2023-08-24T09:03:35;8.27;;;3.85;;
55692;SDS011;41590;53.366;5.212;2023-08-24T09:06:03;8.48;;;3.88;;
55692;SDS011;41590;53.366;5.212;2023-08-24T09:08:39;8.68;;;4.30;;
55692;SDS011;41590;53.366;5.212;2023-08-24T09:11:05;7.13;;;4.20;;
55692;SDS011;41590;53.366;5.212;2023-08-24T09:13:35;8.25;;;4.13;;
55692;SDS011;41590;53.366;5.212;2023-08-24T09:16:10;6.93;;;4.35;;
55692;SDS011;41590;53.366;5.212;2023-08-24T09:18:41;13.75;;;4.47;;
55692;SDS011;41590;53.366;5.212;2023-08-24T09:21:13;10.00;;;4.70;;
55692;SDS011;41590;53.366;5.212;2023-08-24T09:23:44;9.88;;;4.20;;
55692;SDS011;41590;53.366;5.212;2023-08-24T09:26:12;8.88;;;5.00;;
55692;SDS011;41590;53.366;5.212;2023-08-24T09:28:42;9.82;;;4.45;;
55692;SDS011;41590;53.366;5.212;2023-08-24T09:31:12;6.78;;;4.45;;
55692;SDS011;41590;53.366;5.212;2023-08-24T09:33:44;9.57;;;4.45;;
55692;SDS011;41590;53.366;5.212;2023-08-24T09:36:16;7.57;;;4.43;;
55692;SDS011;41590;53.366;5.212;2023-08-24T09:38:55;8.32;;;4.25;;
55692;SDS011;41590;53.366;5.212;2023-08-24T09:41:21;8.95;;;4.38;;
55692;SDS011;41590;53.366;5.212;2023-08-24T09:43:55;6.03;;;4.50;;
55692;SDS011;41590;53.366;5.212;2023-08-24T09:46:31;8.38;;;5.35;;
55692;SDS011;41590;53.366;5.212;2023-08-24T09:54:05;8.77;;;5.72;;
55692;SDS011;41590;53.366;5.212;2023-08-24T09:56:37;9.95;;;6.20;;
55692;SDS011;41590;53.366;5.212;2023-08-24T09:59:13;8.40;;;6.20;;
55692;SDS011;41590;53.366;5.212;2023-08-24T10:01:43;7.40;;;5.88;;
55692;SDS011;41590;53.366;5.212;2023-08-24T10:04:09;11.57;;;7.13;;
55692;SDS011;41590;53.366;5.212;2023-08-24T10:06:38;12.63;;;8.30;;
55692;SDS011;41590;53.366;5.212;2023-08-24T10:09:10;13.75;;;8.35;;
55692;SDS011;41590;53.366;5.212;2023-08-24T10:11:40;15.43;;;8.25;;
55692;SDS011;41590;53.366;5.212;2023-08-24T10:17:07;18.67;;;9.88;;
55692;SDS011;41590;53.366;5.212;2023-08-24T10:19:34;19.65;;;11.05;;
55692;SDS011;41590;53.366;5.212;2023-08-24T10:22:02;18.90;;;10.38;;
55692;SDS011;41590;53.366;5.212;2023-08-24T10:24:30;18.42;;;11.70;;
55692;SDS011;41590;53.366;5.212;2023-08-24T10:26:57;23.83;;;11.65;;
55692;SDS011;41590;53.366;5.212;2023-08-24T10:29:23;24.35;;;11.60;;
55692;SDS011;41590;53.366;5.212;2023-08-24T10:34:21;22.70;;;12.30;;
55692;SDS011;41590;53.366;5.212;2023-08-24T10:36:48;27.17;;;12.93;;
55692;SDS011;41590;53.366;5.212;2023-08-24T10:39:47;27.10;;;13.18;;
55692;SDS011;41590;53.366;5.212;2023-08-24T10:42:10;30.92;;;12.55;;
55692;SDS011;41590;53.366;5.212;2023-08-24T10:44:40;23.33;;;12.55;;
55692;SDS011;41590;53.366;5.212;2023-08-24T10:50:14;35.15;;;13.55;;
55692;SDS011;41590;53.366;5.212;2023-08-24T10:52:43;30.67;;;13.32;;
55692;SDS011;41590;53.366;5.212;2023-08-24T10:55:22;23.98;;;13.02;;
55692;SDS011;41590;53.366;5.212;2023-08-24T11:09:47;38.15;;;16.15;;
55692;SDS011;41590;53.366;5.212;2023-08-24T11:12:27;29.60;;;15.20;;
55692;SDS011;41590;53.366;5.212;2023-08-24T11:18:23;31.67;;;16.65;;
55692;SDS011;41590;53.366;5.212;2023-08-24T11:21:02;38.90;;;15.68;;
55692;SDS011;41590;53.366;5.212;2023-08-24T11:23:31;31.88;;;16.23;;
55692;SDS011;41590;53.366;5.212;2023-08-24T11:29:29;30.58;;;16.67;;
55692;SDS011;41590;53.366;5.212;2023-08-24T11:35:02;25.27;;;16.48;;
55692;SDS011;41590;53.366;5.212;2023-08-24T11:40:38;29.90;;;17.33;;
55692;SDS011;41590;53.366;5.212;2023-08-24T11:43:21;30.73;;;15.77;;
55692;SDS011;41590;53.366;5.212;2023-08-24T11:45:51;25.10;;;15.77;;
55692;SDS011;41590;53.366;5.212;2023-08-24T11:48:26;26.50;;;15.63;;
55692;SDS011;41590;53.366;5.212;2023-08-24T11:57:05;23.17;;;13.77;;
55692;SDS011;41590;53.366;5.212;2023-08-24T11:59:32;27.58;;;14.20;;
55692;SDS011;41590;53.366;5.212;2023-08-24T12:02:08;27.45;;;14.32;;
55692;SDS011;41590;53.366;5.212;2023-08-24T12:04:42;24.45;;;15.43;;
55692;SDS011;41590;53.366;5.212;2023-08-24T12:07:12;23.42;;;14.88;;
55692;SDS011;41590;53.366;5.212;2023-08-24T12:13:08;27.95;;;15.95;;
55692;SDS011;41590;53.366;5.212;2023-08-24T12:15:56;29.40;;;17.08;;
55692;SDS011;41590;53.366;5.212;2023-08-24T12:18:35;31.67;;;17.17;;
55692;SDS011;41590;53.366;5.212;2023-08-24T12:21:06;25.35;;;15.15;;
55692;SDS011;41590;53.366;5.212;2023-08-24T12:29:49;28.10;;;16.55;;
55692;SDS011;41590;53.366;5.212;2023-08-24T12:32:15;27.88;;;18.40;;
55692;SDS011;41590;53.366;5.212;2023-08-24T12:38:03;28.55;;;16.35;;
55692;SDS011;41590;53.366;5.212;2023-08-24T12:40:47;31.55;;;14.07;;
55692;SDS011;41590;53.366;5.212;2023-08-24T12:43:15;25.90;;;15.02;;
55692;SDS011;41590;53.366;5.212;2023-08-24T12:45:42;33.75;;;18.05;;
55692;SDS011;41590;53.366;5.212;2023-08-24T12:48:13;27.35;;;18.15;;
55692;SDS011;41590;53.366;5.212;2023-08-24T12:50:41;28.13;;;18.73;;
55692;SDS011;41590;53.366;5.212;2023-08-24T12:53:07;31.42;;;20.15;;
55692;SDS011;41590;53.366;5.212;2023-08-24T12:55:39;27.50;;;19.65;;
55692;SDS011;41590;53.366;5.212;2023-08-24T12:58:10;32.40;;;20.48;;
55692;SDS011;41590;53.366;5.212;2023-08-24T13:00:37;28.42;;;21.38;;
55692;SDS011;41590;53.366;5.212;2023-08-24T13:03:05;26.25;;;19.77;;
55692;SDS011;41590;53.366;5.212;2023-08-24T13:05:50;32.53;;;20.58;;
55692;SDS011;41590;53.366;5.212;2023-08-24T13:08:22;25.90;;;19.90;;
55692;SDS011;41590;53.366;5.212;2023-08-24T13:10:57;29.90;;;20.60;;
55692;SDS011;41590;53.366;5.212;2023-08-24T13:16:52;22.50;;;17.40;;
55692;SDS011;41590;53.366;5.212;2023-08-24T13:19:22;27.30;;;20.60;;
55692;SDS011;41590;53.366;5.212;2023-08-24T13:22:29;19.90;;;16.45;;
55692;SDS011;41590;53.366;5.212;2023-08-24T13:24:55;19.10;;;14.57;;
55692;SDS011;41590;53.366;5.212;2023-08-24T13:27:47;18.50;;;13.10;;
55692;SDS011;41590;53.366;5.212;2023-08-24T13:30:17;16.25;;;10.82;;
55692;SDS011;41590;53.366;5.212;2023-08-24T13:36:06;15.32;;;9.50;;
55692;SDS011;41590;53.366;5.212;2023-08-24T13:38:32;18.35;;;10.63;;
55692;SDS011;41590;53.366;5.212;2023-08-24T13:41:01;16.42;;;9.82;;
55692;SDS011;41590;53.366;5.212;2023-08-24T13:46:31;15.23;;;6.20;;
55692;SDS011;41590;53.366;5.212;2023-08-24T13:55:54;7.68;;;3.15;;
55692;SDS011;41590;53.366;5.212;2023-08-24T14:04:30;10.48;;;2.30;;
55692;SDS011;41590;53.366;5.212;2023-08-24T14:07:04;11.38;;;2.35;;
55692;SDS011;41590;53.366;5.212;2023-08-24T14:09:30;15.68;;;3.03;;
55692;SDS011;41590;53.366;5.212;2023-08-24T14:12:01;11.75;;;3.13;;
55692;SDS011;41590;53.366;5.212;2023-08-24T14:14:40;14.85;;;3.45;;
55692;SDS011;41590;53.366;5.212;2023-08-24T14:17:10;19.67;;;4.25;;
55692;SDS011;41590;53.366;5.212;2023-08-24T14:19:36;33.35;;;5.18;;
55692;SDS011;41590;53.366;5.212;2023-08-24T14:22:08;31.80;;;5.40;;
55692;SDS011;41590;53.366;5.212;2023-08-24T14:24:35;30.83;;;4.78;;
55692;SDS011;41590;53.366;5.212;2023-08-24T14:27:15;24.00;;;3.88;;
55692;SDS011;41590;53.366;5.212;2023-08-24T14:29:41;18.67;;;4.00;;
55692;SDS011;41590;53.366;5.212;2023-08-24T14:32:11;19.52;;;3.15;;
55692;SDS011;41590;53.366;5.212;2023-08-24T14:40:43;11.32;;;2.53;;
55692;SDS011;41590;53.366;5.212;2023-08-24T14:43:09;12.63;;;2.20;;
55692;SDS011;41590;53.366;5.212;2023-08-24T14:45:42;6.32;;;2.20;;
55692;SDS011;41590;53.366;5.212;2023-08-24T14:48:10;6.00;;;1.70;;
55692;SDS011;41590;53.366;5.212;2023-08-24T14:50:39;9.25;;;2.83;;
55692;SDS011;41590;53.366;5.212;2023-08-24T14:53:11;9.85;;;3.20;;
55692;SDS011;41590;53.366;5.212;2023-08-24T14:55:52;8.85;;;2.85;;
55692;SDS011;41590;53.366;5.212;2023-08-24T14:58:22;11.35;;;2.95;;
55692;SDS011;41590;53.366;5.212;2023-08-24T15:00:49;6.45;;;3.05;;
55692;SDS011;41590;53.366;5.212;2023-08-24T15:03:21;14.00;;;4.38;;
55692;SDS011;41590;53.366;5.212;2023-08-24T15:06:05;12.63;;;4.28;;
55692;SDS011;41590;53.366;5.212;2023-08-24T15:08:34;27.65;;;4.82;;
55692;SDS011;41590;53.366;5.212;2023-08-24T15:11:01;27.05;;;4.35;;
55692;SDS011;41590;53.366;5.212;2023-08-24T15:16:21;28.30;;;5.03;;
55692;SDS011;41590;53.366;5.212;2023-08-24T15:18:48;23.88;;;4.63;;
55692;SDS011;41590;53.366;5.212;2023-08-24T15:24:25;22.60;;;4.20;;
55692;SDS011;41590;53.366;5.212;2023-08-24T15:29:52;34.45;;;5.18;;
55692;SDS011;41590;53.366;5.212;2023-08-24T15:32:21;25.27;;;4.30;;
55692;SDS011;41590;53.366;5.212;2023-08-24T15:34:48;30.02;;;4.88;;
55692;SDS011;41590;53.366;5.212;2023-08-24T15:37:20;29.60;;;4.28;;
55692;SDS011;41590;53.366;5.212;2023-08-24T15:39:49;25.98;;;5.18;;
55692;SDS011;41590;53.366;5.212;2023-08-24T15:45:37;23.55;;;4.10;;
55692;SDS011;41590;53.366;5.212;2023-08-24T15:48:03;21.10;;;3.40;;
55692;SDS011;41590;53.366;5.212;2023-08-24T15:50:31;19.73;;;3.88;;
55692;SDS011;41590;53.366;5.212;2023-08-24T15:52:59;21.60;;;3.20;;
55692;SDS011;41590;53.366;5.212;2023-08-24T15:58:32;19.30;;;3.80;;
55692;SDS011;41590;53.366;5.212;2023-08-24T16:00:58;13.40;;;3.22;;
55692;SDS011;41590;53.366;5.212;2023-08-24T16:03:25;17.17;;;3.30;;
55692;SDS011;41590;53.366;5.212;2023-08-24T16:05:55;12.70;;;3.03;;
55692;SDS011;41590;53.366;5.212;2023-08-24T16:08:21;11.70;;;3.10;;
55692;SDS011;41590;53.366;5.212;2023-08-24T16:10:48;12.70;;;2.80;;
55692;SDS011;41590;53.366;5.212;2023-08-24T16:15:46;11.10;;;2.70;;
55692;SDS011;41590;53.366;5.212;2023-08-24T16:18:24;14.27;;;3.15;;
55692;SDS011;41590;53.366;5.212;2023-08-24T16:20:52;12.40;;;3.45;;
55692;SDS011;41590;53.366;5.212;2023-08-24T16:23:18;14.05;;;3.35;;
55692;SDS011;41590;53.366;5.212;2023-08-24T16:25:50;14.18;;;3.60;;
55692;SDS011;41590;53.366;5.212;2023-08-24T16:28:21;11.30;;;3.55;;
55692;SDS011;41590;53.366;5.212;2023-08-24T16:30:49;13.75;;;4.18;;
55692;SDS011;41590;53.366;5.212;2023-08-24T16:33:21;13.48;;;3.97;;
55692;SDS011;41590;53.366;5.212;2023-08-24T16:35:49;11.45;;;3.38;;
55692;SDS011;41590;53.366;5.212;2023-08-24T16:40:47;10.07;;;4.10;;
55692;SDS011;41590;53.366;5.212;2023-08-24T16:43:14;8.23;;;3.97;;
55692;SDS011;41590;53.366;5.212;2023-08-24T16:45:47;7.47;;;3.65;;
55692;SDS011;41590;53.366;5.212;2023-08-24T16:50:58;6.97;;;3.47;;
55692;SDS011;41590;53.366;5.212;2023-08-24T16:53:25;6.95;;;3.33;;
55692;SDS011;41590;53.366;5.212;2023-08-24T16:55:55;8.07;;;3.67;;
55692;SDS011;41590;53.366;5.212;2023-08-24T16:58:22;7.97;;;3.85;;
55692;SDS011;41590;53.366;5.212;2023-08-24T17:00:55;7.28;;;3.83;;
55692;SDS011;41590;53.366;5.212;2023-08-24T17:03:39;8.82;;;3.72;;
55692;SDS011;41590;53.366;5.212;2023-08-24T17:09:33;7.93;;;3.67;;
55692;SDS011;41590;53.366;5.212;2023-08-24T17:12:58;7.18;;;3.58;;
55692;SDS011;41590;53.366;5.212;2023-08-24T17:18:46;5.82;;;3.50;;
55692;SDS011;41590;53.366;5.212;2023-08-24T17:21:14;12.88;;;3.80;;
55692;SDS011;41590;53.366;5.212;2023-08-24T17:23:41;6.47;;;3.13;;
55692;SDS011;41590;53.366;5.212;2023-08-24T17:26:10;8.55;;;3.53;;
55692;SDS011;41590;53.366;5.212;2023-08-24T17:28:42;8.77;;;4.35;;
55692;SDS011;41590;53.366;5.212;2023-08-24T17:31:08;8.00;;;4.30;;
55692;SDS011;41590;53.366;5.212;2023-08-24T17:33:38;8.60;;;5.68;;
55692;SDS011;41590;53.366;5.212;2023-08-24T17:36:10;11.95;;;7.03;;
55692;SDS011;41590;53.366;5.212;2023-08-24T17:38:42;7.35;;;6.38;;
55692;SDS011;41590;53.366;5.212;2023-08-24T17:43:47;12.27;;;6.25;;
55692;SDS011;41590;53.366;5.212;2023-08-24T17:46:13;9.73;;;6.20;;
55692;SDS011;41590;53.366;5.212;2023-08-24T17:48:39;10.57;;;6.30;;
55692;SDS011;41590;53.366;5.212;2023-08-24T17:51:10;9.13;;;5.93;;
55692;SDS011;41590;53.366;5.212;2023-08-24T17:53:42;10.52;;;5.22;;
55692;SDS011;41590;53.366;5.212;2023-08-24T17:56:10;8.18;;;4.65;;
55692;SDS011;41590;53.366;5.212;2023-08-24T18:01:33;10.02;;;6.82;;
55692;SDS011;41590;53.366;5.212;2023-08-24T18:04:02;13.95;;;9.15;;
55692;SDS011;41590;53.366;5.212;2023-08-24T18:06:42;10.98;;;8.23;;
55692;SDS011;41590;53.366;5.212;2023-08-24T18:09:11;11.70;;;6.80;;
55692;SDS011;41590;53.366;5.212;2023-08-24T18:11:42;11.68;;;5.57;;
55692;SDS011;41590;53.366;5.212;2023-08-24T18:16:38;7.15;;;4.70;;
55692;SDS011;41590;53.366;5.212;2023-08-24T18:19:04;7.00;;;4.50;;
55692;SDS011;41590;53.366;5.212;2023-08-24T18:21:37;8.02;;;4.50;;
55692;SDS011;41590;53.366;5.212;2023-08-24T18:24:09;7.15;;;4.70;;
55692;SDS011;41590;53.366;5.212;2023-08-24T18:29:12;9.02;;;4.85;;
55692;SDS011;41590;53.366;5.212;2023-08-24T18:31:47;8.13;;;4.50;;
55692;SDS011;41590;53.366;5.212;2023-08-24T18:34:14;7.88;;;5.40;;
55692;SDS011;41590;53.366;5.212;2023-08-24T18:36:46;14.50;;;6.88;;